TGPYMSLP

Guest
Details From TGPY - Point Salines Intl
To MSLP - El Salvador Intl
Flight Number -
Tags Generated
Created
Modified
Stats Distance 1,598 nm / 2,960 km
Max Altitude 0 ft / 0 m
Waypoints 4
Social Downloads 3
Likes 0
Share VATSIM

Download

Looking for another format? Having issues loading an existing format? Contact us
Advertisement - Login to hide

Notes

Generated

Route

TGPY BEA88 CAT79 MSLP

ID Type Via Altitude Latitude Longitude Leg Dist Tot Dist Heading (true) Name
O TGPY APT - 0 ft / 0 m 12.00430˚ -61.79881˚ - 0 nm - -
BEA88 FIX - 0 ft / 0 m 12.53384˚ -69.85529˚ 473 nm 473 nm 275° / 273° -
CAT79 FIX - 0 ft / 0 m 13.44837˚ -88.91103˚ 1116 nm 1590 nm 275° / 271° -
O MSLP APT - 0 ft / 0 m 13.45400˚ -89.04775˚ 7 nm 1598 nm 272° / 272° El Salvador Intl

Altitude Profile

Advertisement - Login to hide

Weather


0- 5 10 15 20 25 30 35+ Temperature / ° C

Clouds and Precipitation
Forecast for 2017-12-13 12:00 UTC. Updated 20 minutes ago

Ground ~20,000 ft ~40,000 ft Winds

TGPY

Details ICAO TGPY (GND)
Name Grenada/Bishop International
Region Grenada
Timezone America/Grenada (UTC-4.0)
Stats Elevation 41 ft / 12 m (AMSL)
Location 12.004247° -61.786192°
Runways 1
Magnetic Variation 14.799° W

METAR

TGPY 131100Z 07010KT 9999 FEW018 26/24 Q1014 NOSIG

Decode

TAF

Not found

Departure Runways

ID Width Length Bearing (true) Bearing (mag) Surface Threshold Offset Overrun Length
10 148 ft / 45 m 9,012 ft / 2,747 m 90.26° 105.06° Asphalt 0 ft / 0 m 0 ft / 0 m
28 148 ft / 45 m 9,012 ft / 2,747 m 270.26° 285.06° Asphalt 0 ft / 0 m 0 ft / 0 m

MSLP

Details ICAO MSLP (SAL)
Name El Salvador Intl
Region El Salvador
Timezone America/El_Salvador (UTC-6.0)
Stats Elevation 101 ft / 31 m (AMSL)
Location 13.445666° -89.051739°
Runways 2
Magnetic Variation 0.452° E

METAR

MSLP 131050Z 02015G25KT CAVOK 23/13 Q1012 A2990 NOSIG

Decode

TAF

Not found

Destination Runways

ID Width Length Bearing (true) Bearing (mag) Surface Threshold Offset Overrun Length
07 148 ft / 45 m 10,507 ft / 3,202 m 69.86° 69.41° Asphalt 0 ft / 0 m 200 ft / 61 m
18 75 ft / 23 m 2,639 ft / 804 m 180.00° 179.55° Asphalt 0 ft / 0 m 120 ft / 37 m
25 148 ft / 45 m 10,507 ft / 3,202 m 249.87° 249.42° Asphalt 0 ft / 0 m 200 ft / 61 m
36 75 ft / 23 m 2,639 ft / 804 m 0.00° 359.55° Asphalt 0 ft / 0 m 120 ft / 37 m

Approach Navaids

Runway Type Ident Frequency Range Bearing (true) Bearing (mag) Slope Elevation
07 Localiser CUS 110.30 MHz 18 nm / 33 km 69.76° 69.31° - 71 ft / 22 m (AMSL)
07 Glidescope CUS 110.30 MHz 10 nm / 19 km 69.87° 69.41° 2.50° 78 ft / 24 m (AMSL)